Airfield :
LOGIN :

Register | Disclaimer

   EN    FR    IT 

 










Legend :    VFR   Marginal VFR   IFR   Intensive IFR   Very Intensive IFR
Visi :
Ceiling :
>= 8 km
>= 3000ft
5 to 8 km
1000 to 3000 ft
1500m to 5 km
500 to 1000 ft
800 to 1500m
200 to 500 ft
< 800m
< 200 ft
Symbols :   Thunderstorms  Fog  Heavy snow  Heavy precipitations  Wind > 20 kt
SIGMETs :     Misc.  Thunderstorms  Icing  Turbulence  Mountain Waves  Volcanic Ashes







- Airport Elevation : 11 ft
- IATA code : PVK


LGPZ - Aktion Lefkada Preveza

CURRENT METAR :
  • 160850Z 11011KT 9999 FEW025 11/M02 Q1027

EXPIRED METARs :
  • 160820Z 11009KT 9999 FEW025 10/M02 Q1027
  • 160750Z 10009KT 9999 FEW025 10/M01 Q1027
  • 160720Z 07009KT 9999 FEW025 09/01 Q1027
  • 160650Z 08010KT 9999 FEW025 09/M01 Q1027
  • 160620Z 06011KT CAVOK 08/M01 Q1026

TAF TAF LGPZ
Valid from the 16 at 06:00 until the 17 at 06:00 UTC


160500Z 1606/1706 08012KT 9999 FEW020
BECMG 1613/1615 VRB05KT
No reported NOTAMs for that airfield.
1 SIGMET reported for the Athinai FIR (LGGG) :
 
Embedded thunderstorms
LGGG SIGMET 4 VALID 160735/161135 LGAT
LGGG ATHINAI FIR/UIR EMBD TS OBS E OF E02330 AND S OF N3700 STNR NC=



MET'MAP, your aeronautical weather chart ! - Copyright ORBIFLY December 2007 - Disclaimer

ORBIFLY MET'MAP TEAM :

Programming & Development : Alexandra Zaïnal
Concept & Development : Baudouin d'Aumeries
Co-Development & Prog : Marc-Olivier Méhu
Technical & hardware support : Manuel Goepfert

Contact : metmap@orbifly.com




SOURCES & CREDITS :

   NOAA